Time;durP1;ratioP1;P1;durP2;ratioP2;P2;SDS_P1;SDS_P2;PMS_P1;PMS_P2;Temp;Humidity;BMP_temperature;BMP_pressure;BME280_temperature;BME280_humidity;BME280_pressure;Samples;Min_cycle;Max_cycle;Signal;HPM_P1;HPM_P2
2021/06/27 00:00:35;;;;;;;6.38;5.25;;;;;;;20.64;61.94;100476.06;5020951;28;20029;-76
2021/06/27 00:03:00;;;;;;;6.20;5.25;;;;;;;20.58;62.11;100475.88;5025790;28;20048;-76
2021/06/27 00:05:27;;;;;;;6.13;5.53;;;;;;;20.50;62.60;100475.31;5025918;28;20030;-75
2021/06/27 00:07:54;;;;;;;6.72;5.55;;;;;;;20.52;62.21;100471.38;5029402;28;20396;-76
2021/06/27 00:10:26;;;;;;;6.45;5.35;;;;;;;20.47;62.41;100470.38;5016755;28;20248;-76
2021/06/27 00:12:52;;;;;;;7.45;5.20;;;;;;;20.51;61.92;100474.28;5029069;28;20037;-76
2021/06/27 00:15:43;;;;;;;8.65;5.32;;;;;;;20.54;62.06;100463.91;5028789;28;20097;-76
2021/06/27 00:18:11;;;;;;;6.82;5.40;;;;;;;20.49;62.02;100469.09;5039386;28;20468;-76
2021/06/27 00:20:39;;;;;;;6.13;5.53;;;;;;;20.47;62.21;100468.50;5029226;28;20627;-76
2021/06/27 00:23:07;;;;;;;6.57;5.38;;;;;;;20.47;62.17;100468.50;5021872;28;20148;-76
2021/06/27 00:25:34;;;;;;;6.40;5.40;;;;;;;20.41;62.27;100464.03;5010705;28;20041;-76
2021/06/27 00:28:04;;;;;;;6.22;5.63;;;;;;;20.41;62.43;100464.03;5044183;28;20433;-76
2021/06/27 00:30:30;;;;;;;7.20;5.30;;;;;;;20.31;62.78;100464.50;5027483;28;20041;-76
2021/06/27 00:32:58;;;;;;;6.28;5.30;;;;;;;20.24;62.86;100466.41;5031018;28;20033;-76
2021/06/27 00:35:26;;;;;;;8.07;5.90;;;;;;;20.27;62.73;100470.53;5044244;28;20365;-76
2021/06/27 00:37:53;;;;;;;5.93;5.20;;;;;;;20.16;63.25;100472.03;5024874;28;20524;-76
2021/06/27 00:40:21;;;;;;;5.60;5.00;;;;;;;20.14;63.19;100466.03;5027492;28;20344;-75
2021/06/27 00:42:48;;;;;;;7.05;5.75;;;;;;;20.18;62.92;100461.06;5028127;28;20569;-76
2021/06/27 00:45:18;;;;;;;6.25;5.35;;;;;;;20.17;63.28;100459.44;5035699;28;20030;-76
2021/06/27 00:47:45;;;;;;;8.02;5.43;;;;;;;20.15;63.21;100463.16;5047812;28;20057;-76
2021/06/27 00:50:23;;;;;;;6.28;5.10;;;;;;;20.23;62.56;100463.94;5035399;28;20246;-76
2021/06/27 00:52:51;;;;;;;6.60;5.43;;;;;;;20.13;62.91;100459.03;5045184;28;20029;-76
2021/06/27 00:55:19;;;;;;;5.57;4.90;;;;;;;20.14;62.88;100464.22;5043399;28;20036;-76
2021/06/27 00:57:50;;;;;;;6.72;5.65;;;;;;;20.12;62.70;100465.47;5044719;28;20029;-76
2021/06/27 01:00:20;;;;;;;5.63;4.80;;;;;;;20.08;63.04;100466.94;5027345;28;20034;-76
2021/06/27 01:02:50;;;;;;;7.07;5.10;;;;;;;20.09;62.71;100463.19;5044825;28;20439;-75
2021/06/27 01:05:20;;;;;;;5.90;5.30;;;;;;;20.08;62.69;100469.59;5043898;28;20116;-76
2021/06/27 01:07:46;;;;;;;5.20;4.70;;;;;;;20.08;62.96;100464.25;5044453;28;20452;-76
2021/06/27 01:10:13;;;;;;;5.57;4.97;;;;;;;20.13;62.32;100464.41;5027024;28;20565;-76
2021/06/27 01:12:39;;;;;;;8.90;5.50;;;;;;;20.18;62.29;100464.56;5034199;28;20040;-76
2021/06/27 01:15:07;;;;;;;5.57;4.72;;;;;;;20.11;62.38;100469.16;5028893;28;20164;-75
2021/06/27 01:17:34;;;;;;;5.70;5.10;;;;;;;20.09;62.68;100460.50;5028506;28;20375;-76
2021/06/27 01:20:01;;;;;;;6.57;5.07;;;;;;;20.11;62.52;100466.47;5020697;28;20038;-76
2021/06/27 01:22:27;;;;;;;5.13;4.60;;;;;;;20.07;62.59;100473.31;5009014;28;20642;-76
2021/06/27 01:24:54;;;;;;;6.10;5.03;;;;;;;20.10;62.36;100465.66;5024249;28;20092;-76
2021/06/27 01:27:20;;;;;;;5.13;4.63;;;;;;;20.12;62.42;100465.47;5044410;28;20032;-76
2021/06/27 01:29:46;;;;;;;5.43;4.90;;;;;;;20.09;62.61;100463.19;5028025;28;20065;-75
2021/06/27 01:32:13;;;;;;;5.35;4.72;;;;;;;20.09;62.65;100460.50;5028221;28;20029;-76
2021/06/27 01:34:40;;;;;;;5.80;5.13;;;;;;;20.10;62.45;100460.28;5050478;28;20030;-76
2021/06/27 01:37:08;;;;;;;5.30;4.80;;;;;;;20.05;63.03;100470.88;5029739;28;20033;-76
2021/06/27 01:39:34;;;;;;;5.40;4.85;;;;;;;20.05;62.64;100470.88;5028566;28;20034;-76
2021/06/27 01:42:00;;;;;;;6.00;5.30;;;;;;;20.09;62.42;100468.56;5026475;28;20036;-76
2021/06/27 01:44:27;;;;;;;5.30;4.80;;;;;;;20.15;62.20;100463.16;5028159;28;20441;-76
2021/06/27 01:46:55;;;;;;;5.47;4.97;;;;;;;20.12;62.43;100460.91;5027604;28;20040;-76
2021/06/27 01:49:24;;;;;;;4.90;4.40;;;;;;;20.06;62.60;100467.13;5033380;28;20041;-76
2021/06/27 01:51:51;;;;;;;6.00;5.07;;;;;;;20.11;62.52;100466.47;5008150;28;20042;-76
2021/06/27 01:54:24;;;;;;;5.00;4.50;;;;;;;20.09;62.67;100458.66;5028312;28;20033;-76
2021/06/27 01:56:49;;;;;;;6.20;4.65;;;;;;;20.09;62.52;100463.19;5043613;28;20055;-76
2021/06/27 01:59:16;;;;;;;4.72;4.07;;;;;;;20.07;62.75;100470.63;5028399;28;20034;-76
2021/06/27 02:01:42;;;;;;;5.47;4.70;;;;;;;20.02;62.72;100474.00;5028149;28;20034;-76
2021/06/27 02:04:10;;;;;;;4.47;4.00;;;;;;;20.01;62.85;100474.19;5028036;28;20037;-76
2021/06/27 02:06:40;;;;;;;4.78;4.15;;;;;;;19.94;64.55;100476.91;5027162;28;20037;-76
2021/06/27 02:09:10;;;;;;;4.63;4.23;;;;;;;19.87;65.37;100468.88;5021169;28;20371;-76
2021/06/27 02:11:36;;;;;;;4.85;4.35;;;;;;;19.82;64.79;100467.88;5032194;28;20025;-76
2021/06/27 02:14:03;;;;;;;5.22;4.32;;;;;;;19.79;64.92;100460.28;5032662;28;20121;-76
2021/06/27 02:16:30;;;;;;;4.45;4.05;;;;;;;19.72;65.69;100454.94;5030016;28;20441;-76
2021/06/27 02:18:56;;;;;;;5.10;4.60;;;;;;;19.71;64.59;100451.44;5029467;28;20033;-77
2021/06/27 02:21:28;;;;;;;4.45;4.05;;;;;;;19.74;64.60;100452.88;5031524;28;20292;-76
2021/06/27 02:23:55;;;;;;;5.20;4.70;;;;;;;19.73;65.12;100457.41;5043316;28;20042;-76
2021/06/27 02:26:24;;;;;;;4.60;4.20;;;;;;;19.75;64.56;100461.72;5021840;28;20473;-76
2021/06/27 02:28:50;;;;;;;6.40;4.82;;;;;;;19.72;66.41;100461.13;5027766;28;20474;-76
2021/06/27 02:31:17;;;;;;;5.25;4.65;;;;;;;19.76;64.33;100458.84;5031771;28;20112;-76
2021/06/27 02:33:43;;;;;;;5.82;4.90;;;;;;;19.78;64.47;100458.63;5047196;28;20041;-76
2021/06/27 02:36:08;;;;;;;4.95;4.15;;;;;;;19.78;64.53;100461.28;5031218;28;20040;-76
2021/06/27 02:38:34;;;;;;;4.50;4.10;;;;;;;19.75;64.61;100457.19;5031493;28;20120;-76
2021/06/27 02:41:00;;;;;;;4.40;3.90;;;;;;;19.71;64.57;100453.28;5029722;28;20103;-76
2021/06/27 02:43:25;;;;;;;4.00;3.60;;;;;;;19.65;65.50;100452.25;5045452;28;20061;-76
2021/06/27 02:45:51;;;;;;;4.65;4.15;;;;;;;19.57;66.90;100443.59;5012445;28;20046;-76
2021/06/27 02:48:16;;;;;;;5.05;4.38;;;;;;;19.51;65.16;100445.28;5024349;28;20068;-76
2021/06/27 02:50:43;;;;;;;4.18;3.55;;;;;;;19.43;66.43;100438.31;5030541;28;20485;-76
2021/06/27 02:53:09;;;;;;;4.15;3.75;;;;;;;19.34;67.28;100428.84;5030787;28;20029;-76
2021/06/27 02:55:35;;;;;;;5.43;4.22;;;;;;;19.25;66.20;100422.91;5031093;28;20616;-75
2021/06/27 02:58:00;;;;;;;4.93;4.40;;;;;;;19.25;65.91;100422.91;5046858;28;20268;-76
2021/06/27 03:00:26;;;;;;;4.20;3.80;;;;;;;19.20;66.94;100420.03;5045264;28;20061;-76
2021/06/27 03:02:51;;;;;;;4.03;3.63;;;;;;;19.14;67.87;100418.22;5042917;28;20505;-76
2021/06/27 03:05:17;;;;;;;4.40;4.00;;;;;;;19.06;67.46;100421.09;5047606;28;20050;-76
2021/06/27 03:07:43;;;;;;;4.30;3.90;;;;;;;19.01;68.46;100420.91;5031098;28;20437;-75
2021/06/27 03:10:14;;;;;;;4.93;4.25;;;;;;;18.89;67.91;100408.16;5029485;28;20030;-76
2021/06/27 03:12:44;;;;;;;;;;;;;;;18.85;67.83;100414.13;5027258;28;20083;-76
2021/06/27 03:15:11;;;;;;;4.70;4.20;;;;;;;18.86;67.13;100399.72;5011903;28;20279;-76
2021/06/27 03:17:38;;;;;;;4.30;3.90;;;;;;;18.89;66.90;100399.28;5030430;28;20435;-75
2021/06/27 03:20:05;;;;;;;5.07;4.32;;;;;;;18.87;67.35;100404.03;5029074;28;20038;-76
2021/06/27 03:22:30;;;;;;;4.78;4.28;;;;;;;18.81;68.29;100408.38;5023552;28;20426;-76
2021/06/27 03:24:55;;;;;;;5.20;4.68;;;;;;;18.77;69.00;100414.38;5030403;28;20056;-76
2021/06/27 03:27:22;;;;;;;5.13;4.40;;;;;;;18.71;69.57;100417.84;5030859;28;20102;-76
2021/06/27 03:29:47;;;;;;;6.47;5.13;;;;;;;18.57;72.38;100428.56;5029981;28;20106;-76
2021/06/27 03:32:13;;;;;;;6.53;5.00;;;;;;;18.51;70.24;100434.75;5030732;28;20029;-76
2021/06/27 03:34:38;;;;;;;4.88;4.35;;;;;;;18.44;71.04;100429.38;5034750;28;20049;-75
2021/06/27 03:37:04;;;;;;;5.88;4.85;;;;;;;18.37;71.34;100423.19;5030905;28;20053;-75
2021/06/27 03:39:30;;;;;;;5.80;4.90;;;;;;;18.38;69.99;100422.19;5029751;28;20046;-76
2021/06/27 03:41:55;;;;;;;6.35;4.82;;;;;;;18.41;70.26;100423.63;5029430;28;20034;-76
2021/06/27 03:44:22;;;;;;;5.43;4.82;;;;;;;18.50;69.74;100434.97;5030279;28;20041;-76
2021/06/27 03:46:47;;;;;;;5.75;4.72;;;;;;;18.62;68.55;100420.75;5031806;28;20025;-76
2021/06/27 03:49:13;;;;;;;4.57;4.05;;;;;;;18.75;68.33;100409.16;5031392;28;20456;-76
2021/06/27 03:51:38;;;;;;;4.10;3.70;;;;;;;18.85;68.09;100396.22;5030181;28;20116;-76
2021/06/27 03:54:04;;;;;;;4.40;4.00;;;;;;;18.91;67.94;100399.91;5015373;28;20124;-76
2021/06/27 03:56:30;;;;;;;5.85;4.05;;;;;;;18.95;68.17;100395.78;5011970;28;20029;-76
2021/06/27 03:58:55;;;;;;;3.30;3.00;;;;;;;18.97;68.53;100404.41;5029862;28;20057;-76
2021/06/27 04:01:21;;;;;;;4.10;3.63;;;;;;;18.96;68.93;100410.00;5029281;28;20041;-76
2021/06/27 04:03:47;;;;;;;4.85;4.18;;;;;;;18.93;69.46;100410.44;5030456;28;20030;-76
2021/06/27 04:06:12;;;;;;;4.57;4.05;;;;;;;18.91;71.28;100418.66;5028888;28;20120;-76
2021/06/27 04:08:37;;;;;;;4.72;4.32;;;;;;;18.83;70.07;100419.72;5030465;28;20029;-76
2021/06/27 04:11:03;;;;;;;4.30;3.88;;;;;;;18.87;69.63;100420.09;5029217;28;20033;-76
2021/06/27 04:13:31;;;;;;;4.70;4.15;;;;;;;18.88;69.88;100424.47;5027075;28;20409;-76
2021/06/27 04:15:57;;;;;;;5.50;4.82;;;;;;;18.85;70.20;100414.97;5029572;28;20064;-76
2021/06/27 04:18:23;;;;;;;4.50;4.10;;;;;;;18.93;70.08;100413.94;5028123;28;20038;-76
2021/06/27 04:20:49;;;;;;;6.43;4.57;;;;;;;18.98;69.90;100410.63;5023172;28;20041;-76
2021/06/27 04:23:15;;;;;;;5.32;4.78;;;;;;;19.02;70.89;100414.50;5029387;28;20100;-76
2021/06/27 04:25:41;;;;;;;4.57;4.03;;;;;;;19.10;69.64;100425.00;5024464;28;20037;-76
2021/06/27 04:28:07;;;;;;;4.18;3.78;;;;;;;19.18;69.56;100429.31;5028853;28;20489;-76
2021/06/27 04:30:33;;;;;;;6.22;4.40;;;;;;;19.22;67.74;100439.41;5030104;28;20482;-76
2021/06/27 04:32:58;;;;;;;5.13;4.38;;;;;;;19.31;68.16;100431.97;5029862;28;20037;-76
2021/06/27 04:35:24;;;;;;;4.32;3.80;;;;;;;19.45;67.47;100424.69;5030198;28;20048;-76
2021/06/27 04:37:49;;;;;;;5.50;4.70;;;;;;;19.61;66.03;100416.16;5029612;28;20029;-76
2021/06/27 04:40:15;;;;;;;4.80;4.20;;;;;;;19.70;66.39;100409.53;5028552;28;20029;-76
2021/06/27 04:42:40;;;;;;;4.97;4.22;;;;;;;19.72;66.11;100414.69;5029322;28;20132;-76
2021/06/27 04:45:06;;;;;;;4.10;3.70;;;;;;;19.76;66.08;100423.13;5029863;28;20116;-76
2021/06/27 04:47:32;;;;;;;5.00;4.57;;;;;;;19.76;66.36;100436.53;5029335;28;20405;-76
2021/06/27 04:49:58;;;;;;;4.95;3.63;;;;;;;19.88;65.88;100440.22;5028238;28;20034;-76
2021/06/27 04:52:23;;;;;;;3.90;3.30;;;;;;;20.03;65.98;100439.91;5028347;28;20038;-76
2021/06/27 04:54:49;;;;;;;3.97;3.47;;;;;;;20.18;65.87;100445.78;5027627;28;20034;-76
2021/06/27 04:57:14;;;;;;;3.80;3.40;;;;;;;20.31;65.48;100447.56;5028005;28;20048;-76
2021/06/27 04:59:40;;;;;;;3.85;3.45;;;;;;;20.41;65.12;100455.16;5029505;28;20038;-76
2021/06/27 05:02:05;;;;;;;4.50;4.05;;;;;;;20.53;63.63;100458.75;5026950;28;20044;-76
2021/06/27 05:04:30;;;;;;;4.40;4.00;;;;;;;20.54;63.77;100460.41;5029314;28;20521;-76
2021/06/27 05:06:56;;;;;;;5.57;4.25;;;;;;;20.56;63.32;100451.09;5028442;28;20044;-76
2021/06/27 05:09:21;;;;;;;5.05;4.50;;;;;;;20.57;62.94;100439.34;5028380;28;20045;-76
2021/06/27 05:11:47;;;;;;;4.45;4.05;;;;;;;20.53;63.39;100438.09;5029278;28;20029;-76
2021/06/27 05:14:12;;;;;;;4.03;3.63;;;;;;;20.44;64.22;100436.72;5034791;28;20042;-76
2021/06/27 05:16:37;;;;;;;3.58;3.05;;;;;;;20.36;64.33;100426.25;5029068;28;20072;-76
2021/06/27 05:19:03;;;;;;;5.85;4.60;;;;;;;20.35;63.94;100424.59;5024998;28;20029;-76
2021/06/27 05:21:28;;;;;;;4.97;4.47;;;;;;;20.32;64.22;100423.16;5011291;28;20038;-76
2021/06/27 05:23:53;;;;;;;4.70;3.92;;;;;;;20.27;64.04;100414.13;5025002;28;20402;-76
2021/06/27 05:26:19;;;;;;;4.65;3.83;;;;;;;20.26;64.39;100418.69;5027976;28;20038;-76
2021/06/27 05:28:44;;;;;;;5.15;4.10;;;;;;;20.32;64.31;100417.78;5021535;28;20491;-76
2021/06/27 05:31:09;;;;;;;4.43;3.90;;;;;;;20.46;64.15;100415.84;5023379;28;20053;-76
2021/06/27 05:33:35;;;;;;;4.72;4.13;;;;;;;20.65;64.14;100411.34;5049803;28;20026;-76
2021/06/27 05:36:00;;;;;;;5.68;4.05;;;;;;;20.84;64.08;100411.41;5028774;28;20486;-76
2021/06/27 05:38:25;;;;;;;4.97;4.47;;;;;;;20.93;62.58;100408.19;5028354;28;20056;-76
2021/06/27 05:40:51;;;;;;;5.70;4.20;;;;;;;21.11;61.98;100412.75;5020243;28;20037;-76
2021/06/27 05:43:17;;;;;;;5.03;4.05;;;;;;;21.21;61.48;100415.75;5028419;28;20026;-76
2021/06/27 05:45:42;;;;;;;4.60;4.10;;;;;;;21.26;61.52;100404.31;5032079;28;20041;-76
2021/06/27 05:48:08;;;;;;;4.40;3.85;;;;;;;21.21;61.73;100409.53;5045843;28;20033;-76
2021/06/27 05:50:33;;;;;;;4.03;3.50;;;;;;;21.21;62.35;100412.22;5027390;28;20034;-76
2021/06/27 05:52:59;;;;;;;3.97;3.30;;;;;;;21.24;62.22;100403.72;5030171;28;20057;-76
2021/06/27 05:55:24;;;;;;;4.10;3.70;;;;;;;21.52;62.82;100403.16;5030080;28;20494;-76
2021/06/27 05:57:49;;;;;;;4.43;3.75;;;;;;;21.92;61.47;100408.00;5032129;28;20417;-76
2021/06/27 06:00:15;;;;;;;4.38;3.30;;;;;;;22.44;61.67;100404.75;5022888;28;20038;-76
2021/06/27 06:02:40;;;;;;;3.88;3.47;;;;;;;23.01;59.33;100404.19;5025229;28;20030;-76
2021/06/27 06:05:06;;;;;;;3.70;3.40;;;;;;;23.45;58.36;100405.34;5032501;28;20056;-77
2021/06/27 06:07:31;;;;;;;4.15;3.75;;;;;;;23.96;56.40;100416.31;5032276;28;20037;-76
2021/06/27 06:09:57;;;;;;;4.97;3.83;;;;;;;24.41;53.19;100420.84;5024817;28;20044;-76
2021/06/27 06:12:22;;;;;;;4.03;3.63;;;;;;;24.31;52.76;100417.97;5032292;28;20090;-76
2021/06/27 06:14:47;;;;;;;4.03;3.60;;;;;;;23.99;54.18;100429.34;5026714;28;20675;-76
2021/06/27 06:17:13;;;;;;;5.20;3.50;;;;;;;23.86;55.30;100427.75;5038160;28;20069;-76
2021/06/27 06:19:38;;;;;;;3.97;3.47;;;;;;;23.80;55.63;100436.81;5034380;28;20203;-76
2021/06/27 06:22:04;;;;;;;3.50;3.20;;;;;;;23.77;55.89;100431.09;5036528;28;20711;-76
2021/06/27 06:24:29;;;;;;;3.30;3.00;;;;;;;23.78;55.97;100432.72;5046086;28;20486;-76
2021/06/27 06:26:54;;;;;;;3.00;2.70;;;;;;;23.61;56.00;100424.53;5046984;28;20398;-76
2021/06/27 06:29:20;;;;;;;3.20;2.90;;;;;;;23.53;56.25;100412.25;5032009;28;20045;-76
2021/06/27 06:31:45;;;;;;;3.90;3.50;;;;;;;23.31;55.85;100412.06;5030586;28;20021;-76
2021/06/27 06:34:10;;;;;;;3.90;3.20;;;;;;;23.26;55.97;100402.03;5031664;28;20394;-77
2021/06/27 06:36:36;;;;;;;3.92;3.53;;;;;;;23.40;56.35;100407.13;5030975;28;20524;-76
2021/06/27 06:39:01;;;;;;;3.88;3.47;;;;;;;23.50;56.67;100405.47;5024078;28;20033;-76
2021/06/27 06:41:26;;;;;;;3.75;3.35;;;;;;;24.05;55.49;100405.91;5045874;28;20453;-76
2021/06/27 06:43:52;;;;;;;3.70;3.20;;;;;;;24.85;55.73;100421.00;5030559;28;20502;-76
2021/06/27 06:46:17;;;;;;;4.13;2.92;;;;;;;25.61;52.67;100404.91;5017591;28;20136;-76
2021/06/27 06:48:42;;;;;;;3.22;2.92;;;;;;;25.90;52.28;100401.97;5041391;28;20072;-76
2021/06/27 06:51:08;;;;;;;3.22;2.92;;;;;;;26.13;51.62;100408.97;5030962;28;20525;-76
2021/06/27 06:53:33;;;;;;;3.20;2.90;;;;;;;26.54;50.08;100400.38;5034269;28;20132;-76
2021/06/27 06:55:59;;;;;;;3.30;3.00;;;;;;;26.60;50.04;100402.84;5030339;28;20472;-76
2021/06/27 06:58:28;;;;;;;3.05;2.60;;;;;;;26.89;47.82;100403.28;5029466;28;20116;-77
2021/06/27 07:00:54;;;;;;;3.22;2.88;;;;;;;26.90;47.41;100402.19;5029999;28;20045;-76
2021/06/27 07:03:19;;;;;;;2.97;2.50;;;;;;;27.02;48.78;100403.88;5025980;28;20057;-77
2021/06/27 07:05:45;;;;;;;3.40;2.63;;;;;;;27.48;49.52;100414.94;5029759;28;20033;-76
2021/06/27 07:08:10;;;;;;;3.13;2.83;;;;;;;27.68;43.66;100422.34;5022960;28;20441;-76
2021/06/27 07:10:35;;;;;;;2.88;2.58;;;;;;;27.82;47.34;100422.66;5011388;28;20073;-77
2021/06/27 07:13:00;;;;;;;3.17;2.37;;;;;;;28.46;47.47;100419.47;5014600;28;20466;-76
2021/06/27 07:15:26;;;;;;;3.00;2.70;;;;;;;29.09;44.18;100426.44;5011814;28;20276;-76
2021/06/27 07:17:51;;;;;;;2.78;2.42;;;;;;;29.15;44.37;100417.13;5029017;28;20367;-77
2021/06/27 07:20:17;;;;;;;2.80;2.50;;;;;;;28.90;43.55;100421.56;5030697;28;20068;-76
2021/06/27 07:22:42;;;;;;;2.60;2.15;;;;;;;28.76;44.51;100418.59;5017804;28;20388;-76
2021/06/27 07:25:09;;;;;;;2.85;2.50;;;;;;;28.63;45.41;100413.75;5010909;28;20026;-77
2021/06/27 07:27:35;;;;;;;2.60;2.38;;;;;;;28.38;45.59;100414.53;5045233;28;20092;-76
2021/06/27 07:30:00;;;;;;;2.63;2.38;;;;;;;28.89;44.61;100410.94;5015096;28;20093;-76
2021/06/27 07:32:25;;;;;;;3.17;2.70;;;;;;;28.93;43.45;100412.03;5031549;28;20034;-77
2021/06/27 07:34:51;;;;;;;3.38;2.35;;;;;;;29.08;43.26;100406.56;5049306;28;20067;-76
2021/06/27 07:37:16;;;;;;;2.65;2.35;;;;;;;29.34;42.99;100399.09;5030820;28;20053;-77
2021/06/27 07:39:42;;;;;;;2.70;2.40;;;;;;;29.48;41.30;100402.00;5030596;28;20045;-76
2021/06/27 07:42:07;;;;;;;2.75;2.40;;;;;;;29.81;41.29;100403.19;5028319;28;20037;-77
2021/06/27 07:44:33;;;;;;;3.00;2.53;;;;;;;29.70;39.01;100401.66;5026304;28;20033;-76
2021/06/27 07:46:58;;;;;;;2.40;2.13;;;;;;;29.89;39.97;100407.25;5028427;28;20443;-76
2021/06/27 07:49:23;;;;;;;2.78;2.33;;;;;;;30.32;38.63;100393.00;5030815;28;20485;-76
2021/06/27 07:51:49;;;;;;;2.60;2.30;;;;;;;30.51;39.55;100393.09;5025454;28;20026;-77
2021/06/27 07:54:14;;;;;;;3.30;2.10;;;;;;;30.73;37.92;100385.22;5028644;28;20397;-76
2021/06/27 07:56:40;;;;;;;2.45;2.03;;;;;;;30.74;39.61;100386.84;5029871;28;20034;-77
2021/06/27 07:59:08;;;;;;;3.88;2.22;;;;;;;31.41;37.25;100388.81;5030716;28;20029;-77
2021/06/27 08:01:33;;;;;;;3.10;2.50;;;;;;;31.98;36.33;100386.06;5015740;28;20042;-77
2021/06/27 08:03:59;;;;;;;2.90;2.38;;;;;;;32.01;36.16;100383.53;5010625;28;20076;-76
2021/06/27 08:06:24;;;;;;;2.78;2.47;;;;;;;31.18;35.88;100388.53;5024405;28;20050;-77
2021/06/27 08:08:49;;;;;;;2.65;2.40;;;;;;;30.86;36.39;100403.66;5028328;28;20407;-77
2021/06/27 08:11:15;;;;;;;3.50;2.60;;;;;;;31.29;35.04;100397.41;5028611;28;20026;-77
2021/06/27 08:13:40;;;;;;;3.03;2.50;;;;;;;31.52;34.88;100399.31;5047621;28;20035;-76
2021/06/27 08:16:06;;;;;;;2.60;2.40;;;;;;;30.73;35.43;100393.41;5032154;28;20033;-77
2021/06/27 08:18:31;;;;;;;2.40;2.17;;;;;;;31.27;35.96;100413.28;5009213;28;20045;-77
2021/06/27 08:20:56;;;;;;;2.72;2.20;;;;;;;31.57;35.06;100400.34;5019127;28;20410;-77
2021/06/27 08:23:22;;;;;;;3.85;2.40;;;;;;;31.96;34.68;100402.75;5029992;28;20050;-77
2021/06/27 08:25:47;;;;;;;2.55;2.30;;;;;;;32.20;33.59;100410.84;5029986;28;20112;-77
2021/06/27 08:28:12;;;;;;;3.83;2.33;;;;;;;32.24;32.93;100400.13;5025469;28;20087;-77
2021/06/27 08:30:38;;;;;;;4.05;2.42;;;;;;;31.94;33.26;100400.31;5029040;28;20171;-77
2021/06/27 08:33:03;;;;;;;2.90;2.53;;;;;;;32.02;32.76;100401.59;5035692;28;20564;-77
2021/06/27 08:35:29;;;;;;;3.20;2.45;;;;;;;32.06;33.72;100397.16;5036687;28;20188;-77
2021/06/27 08:37:55;;;;;;;3.17;2.42;;;;;;;32.25;32.65;100391.63;5021716;28;20037;-77
2021/06/27 08:40:21;;;;;;;2.30;2.10;;;;;;;32.54;32.05;100390.59;5019649;28;20407;-77
2021/06/27 08:42:47;;;;;;;2.60;2.20;;;;;;;32.38;32.42;100395.50;5028367;28;20499;-77
2021/06/27 08:45:16;;;;;;;2.80;2.40;;;;;;;32.96;32.05;100384.00;5029533;28;20044;-77
2021/06/27 08:47:42;;;;;;;2.75;2.25;;;;;;;32.89;31.43;100388.25;5029449;28;20029;-76
2021/06/27 08:50:10;;;;;;;3.17;2.50;;;;;;;33.30;30.03;100384.69;5043610;28;20068;-77
2021/06/27 08:52:36;;;;;;;3.95;2.60;;;;;;;33.12;30.00;100387.25;5030178;28;20048;-77
2021/06/27 08:55:02;;;;;;;2.80;2.22;;;;;;;33.26;30.48;100381.75;5029845;28;20039;-77
2021/06/27 08:57:28;;;;;;;2.60;2.40;;;;;;;32.67;29.92;100383.50;5030114;28;20044;-77
2021/06/27 08:59:54;;;;;;;2.08;1.80;;;;;;;33.27;31.65;100388.03;5029204;28;20033;-77
2021/06/27 09:02:20;;;;;;;2.78;2.25;;;;;;;34.06;30.50;100379.34;5028080;28;20068;-77
2021/06/27 09:04:46;;;;;;;2.35;1.83;;;;;;;33.26;28.41;100386.44;5030138;28;20114;-78
2021/06/27 09:07:32;;;;;;;2.28;2.00;;;;;;;32.08;29.61;100374.94;5029315;28;20578;-78
2021/06/27 09:10:23;;;;;;;2.53;2.20;;;;;;;31.47;30.99;100376.72;5028077;28;20049;-78
2021/06/27 09:12:51;;;;;;;;;;;;;;;31.77;31.22;100369.94;5032748;28;20037;-77
2021/06/27 09:15:33;;;;;;;2.63;2.08;;;;;;;31.58;31.84;100366.41;5041757;28;20003;-77
2021/06/27 09:18:07;;;;;;;2.45;2.00;;;;;;;31.39;31.96;100367.19;5028512;28;20040;-76
2021/06/27 09:20:34;;;;;;;2.10;1.75;;;;;;;31.55;30.65;100365.09;5035928;28;20628;-77
2021/06/27 09:22:59;;;;;;;2.00;1.70;;;;;;;31.53;30.86;100376.34;5033933;28;20049;-77
2021/06/27 09:25:27;;;;;;;2.03;1.80;;;;;;;31.33;30.86;100371.13;5023823;28;20048;-77
2021/06/27 09:28:00;;;;;;;3.13;1.90;;;;;;;31.31;31.66;100368.69;5030339;28;20513;-77
2021/06/27 09:30:27;;;;;;;2.53;2.00;;;;;;;31.23;31.33;100363.09;5028918;28;20049;-77
2021/06/27 09:32:59;;;;;;;2.40;2.10;;;;;;;31.07;32.49;100368.72;5034361;28;20497;-77
2021/06/27 09:36:12;;;;;;;2.20;1.90;;;;;;;30.98;31.27;100367.75;5032306;28;20037;-77
2021/06/27 09:38:51;;;;;;;3.53;2.00;;;;;;;31.32;31.68;100366.75;5018888;28;20030;-75
2021/06/27 09:41:24;;;;;;;2.47;1.90;;;;;;;31.31;33.73;100359.69;5026243;28;20034;-76
2021/06/27 09:43:55;;;;;;;3.08;1.80;;;;;;;31.58;32.88;100366.41;5023225;28;20037;-77
2021/06/27 09:46:43;;;;;;;1.90;1.60;;;;;;;31.32;30.85;100359.38;5031162;28;20406;-76
2021/06/27 09:49:13;;;;;;;2.30;1.90;;;;;;;30.78;31.43;100357.06;5025785;28;20140;-76
2021/06/27 09:51:55;;;;;;;3.67;2.10;;;;;;;30.73;32.15;100357.94;5031285;28;20405;-77
2021/06/27 09:54:22;;;;;;;2.20;1.95;;;;;;;30.65;31.12;100359.38;5028943;28;20276;-75
2021/06/27 09:56:48;;;;;;;1.88;1.60;;;;;;;30.85;31.76;100361.09;5034219;28;20120;-76
2021/06/27 09:59:17;;;;;;;2.55;1.77;;;;;;;30.79;31.92;100351.28;5032502;28;20129;-77
2021/06/27 10:01:43;;;;;;;2.25;1.80;;;;;;;31.06;32.93;100352.66;5028496;28;20061;-76
2021/06/27 10:04:14;;;;;;;2.05;1.80;;;;;;;31.10;31.83;100342.75;5032622;28;20037;-76
2021/06/27 10:06:54;;;;;;;1.95;1.70;;;;;;;31.03;31.77;100347.75;5048107;28;20037;-76
2021/06/27 10:09:28;;;;;;;2.60;1.70;;;;;;;31.03;31.67;100347.75;5030441;28;20083;-77
2021/06/27 10:12:08;;;;;;;2.20;1.80;;;;;;;31.40;31.60;100352.47;5022600;28;20064;-77
2021/06/27 10:14:34;;;;;;;1.90;1.63;;;;;;;31.54;31.57;100352.56;5014160;28;20030;-77
2021/06/27 10:17:03;;;;;;;1.92;1.70;;;;;;;31.92;32.25;100355.22;5012873;28;20038;-76
2021/06/27 10:19:29;;;;;;;2.05;1.58;;;;;;;31.67;30.98;100354.53;5017663;28;20041;-76
2021/06/27 10:21:57;;;;;;;2.20;1.70;;;;;;;31.81;30.08;100349.09;5016550;28;20057;-77
2021/06/27 10:24:23;;;;;;;2.80;1.85;;;;;;;31.88;30.14;100346.81;5021746;28;20101;-77
2021/06/27 10:26:49;;;;;;;2.72;1.92;;;;;;;31.42;31.16;100350.25;5032946;28;20037;-77
2021/06/27 10:29:16;;;;;;;3.17;2.25;;;;;;;31.15;31.21;100345.41;5023268;28;20399;-77
2021/06/27 10:31:42;;;;;;;2.80;1.80;;;;;;;30.96;31.83;100347.31;5012955;28;20417;-77
2021/06/27 10:34:08;;;;;;;2.67;2.00;;;;;;;30.80;32.09;100350.19;5037664;28;20190;-77
2021/06/27 10:36:37;;;;;;;2.85;2.10;;;;;;;30.68;32.23;100350.59;5031069;28;20108;-76
2021/06/27 10:39:08;;;;;;;2.90;1.95;;;;;;;30.62;30.94;100343.56;5032163;28;20033;-76
2021/06/27 10:41:46;;;;;;;;;;;;;;;30.67;31.49;100348.97;5032445;28;20033;-77
2021/06/27 10:44:11;;;;;;;1.90;1.70;;;;;;;30.58;31.03;100338.97;5049600;28;19924;-77
2021/06/27 10:46:40;;;;;;;2.25;1.60;;;;;;;30.92;30.75;100343.56;5049291;28;20428;-77
2021/06/27 10:49:07;;;;;;;1.88;1.65;;;;;;;30.71;30.73;100349.22;5002527;28;20034;-77
2021/06/27 10:51:57;;;;;;;1.95;1.60;;;;;;;30.85;31.34;100344.72;4993691;28;20427;-77
2021/06/27 10:54:22;;;;;;;2.05;1.55;;;;;;;31.05;31.29;100338.16;5010138;28;20419;-77
2021/06/27 10:56:52;;;;;;;1.90;1.60;;;;;;;31.10;31.08;100329.09;5011438;28;20034;-77
2021/06/27 10:59:39;;;;;;;2.00;1.70;;;;;;;31.10;30.36;100329.91;5008799;28;20030;-77
2021/06/27 11:02:32;;;;;;;2.22;2.00;;;;;;;31.17;30.38;100323.28;5002431;28;20065;-77
2021/06/27 11:05:26;;;;;;;2.63;1.98;;;;;;;31.20;30.51;100328.13;5008006;28;20041;-77
2021/06/27 11:07:52;;;;;;;1.80;1.60;;;;;;;31.07;32.03;100335.94;5006933;28;20134;-77
2021/06/27 11:10:17;;;;;;;2.00;1.80;;;;;;;30.97;31.47;100325.16;4994832;28;20038;-77
2021/06/27 11:12:58;;;;;;;2.13;1.83;;;;;;;31.06;31.88;100331.59;5007985;28;20398;-78
2021/06/27 11:15:30;;;;;;;2.00;1.73;;;;;;;30.90;30.82;100322.00;5002894;28;20073;-76
2021/06/27 11:18:09;;;;;;;2.33;1.90;;;;;;;31.04;31.83;100320.16;5007279;28;20066;-77
2021/06/27 11:20:55;;;;;;;2.35;1.80;;;;;;;31.05;30.95;100321.78;5000459;28;20043;-79
2021/06/27 11:23:53;;;;;;;2.15;1.92;;;;;;;31.04;31.18;100328.34;5005102;28;20046;-77
2021/06/27 11:26:37;;;;;;;2.25;1.90;;;;;;;31.11;31.38;100326.06;5008885;28;20061;-76
2021/06/27 11:29:25;;;;;;;2.45;1.67;;;;;;;30.84;29.52;100325.88;5026056;28;20030;-76